createdAt,value
2023-04-16T00:01:01.407Z,8.48
2023-04-16T00:03:29.424Z,7.53
2023-04-16T00:05:57.507Z,7.63
2023-04-16T00:08:25.467Z,10.40
2023-04-16T00:10:55.471Z,8.02
2023-04-16T00:13:23.500Z,6.10
2023-04-16T00:15:51.391Z,7.22
2023-04-16T00:18:21.051Z,7.93
2023-04-16T00:20:49.186Z,6.68
2023-04-16T00:23:17.049Z,7.32
2023-04-16T00:25:44.931Z,5.55
2023-04-16T00:28:14.167Z,8.55
2023-04-16T00:30:42.083Z,7.22
2023-04-16T00:33:09.990Z,8.20
2023-04-16T00:35:37.889Z,6.13
2023-04-16T00:38:06.016Z,8.25
2023-04-16T00:40:33.914Z,5.70
2023-04-16T00:43:01.805Z,6.25
2023-04-16T00:45:31.269Z,7.15
2023-04-16T00:48:00.525Z,7.60
2023-04-16T00:50:28.741Z,6.45
2023-04-16T00:52:56.624Z,5.40
2023-04-16T00:55:24.501Z,6.20
2023-04-16T00:57:53.298Z,6.22
2023-04-16T01:00:21.711Z,5.38
2023-04-16T01:02:51.076Z,5.07
2023-04-16T01:05:20.442Z,4.75
2023-04-16T01:07:48.313Z,5.93
2023-04-16T01:10:16.153Z,4.80
2023-04-16T01:12:44.063Z,4.72
2023-04-16T01:15:12.557Z,6.55
2023-04-16T01:17:40.485Z,4.88
2023-04-16T01:20:10.453Z,4.80
2023-04-16T01:22:39.675Z,6.13
2023-04-16T01:25:08.131Z,7.82
2023-04-16T01:27:37.498Z,5.80
2023-04-16T01:30:06.896Z,5.18
2023-04-16T01:32:50.870Z,8.30
2023-04-16T01:35:19.129Z,5.88
2023-04-16T01:37:48.480Z,4.75
2023-04-16T01:40:16.376Z,3.95
2023-04-16T01:42:44.281Z,4.95
2023-04-16T01:45:12.540Z,6.68
2023-04-16T01:47:40.449Z,6.45
2023-04-16T01:50:09.161Z,5.05
2023-04-16T01:52:37.058Z,4.57
2023-04-16T01:55:07.148Z,4.35
2023-04-16T01:57:35.087Z,4.43
2023-04-16T02:00:04.084Z,7.20
2023-04-16T02:02:33.806Z,4.60
2023-04-16T02:05:01.973Z,5.78
2023-04-16T02:07:31.601Z,4.75
2023-04-16T02:09:59.521Z,5.57
2023-04-16T02:12:29.678Z,5.03
2023-04-16T02:14:57.520Z,4.35
2023-04-16T02:17:28.486Z,4.93
2023-04-16T02:20:10.290Z,5.63
2023-04-16T02:22:48.480Z,3.58
2023-04-16T02:25:19.668Z,4.18
2023-04-16T02:27:48.964Z,5.97
2023-04-16T02:30:34.870Z,4.07
2023-04-16T02:33:05.450Z,4.68
2023-04-16T02:35:33.506Z,4.85
2023-04-16T02:38:01.412Z,5.05
2023-04-16T02:40:29.358Z,3.97
2023-04-16T02:42:58.712Z,3.50
2023-04-16T02:45:26.696Z,7.38
2023-04-16T02:47:54.616Z,3.47
2023-04-16T02:50:22.667Z,4.50
2023-04-16T02:52:51.540Z,3.33
2023-04-16T02:55:19.655Z,2.45
2023-04-16T02:57:47.530Z,3.65
2023-04-16T03:00:16.891Z,2.95
2023-04-16T03:02:44.827Z,4.18
2023-04-16T03:05:12.791Z,3.58
2023-04-16T03:07:40.854Z,3.38
2023-04-16T03:10:10.005Z,4.10
2023-04-16T03:12:37.934Z,3.83
2023-04-16T03:15:08.803Z,4.75
2023-04-16T03:17:38.139Z,3.33
2023-04-16T03:20:07.737Z,3.97
2023-04-16T03:22:35.704Z,3.22
2023-04-16T03:25:03.651Z,4.38
2023-04-16T03:27:32.410Z,3.65
2023-04-16T03:30:00.337Z,3.25
2023-04-16T03:32:28.925Z,3.38
2023-04-16T03:34:58.289Z,2.80
2023-04-16T03:37:26.647Z,2.83
2023-04-16T03:39:54.640Z,7.28
2023-04-16T03:42:22.908Z,2.63
2023-04-16T03:44:51.099Z,3.58
2023-04-16T03:47:19.667Z,3.17
2023-04-16T03:49:48.885Z,3.33
2023-04-16T03:52:18.304Z,2.70
2023-04-16T03:54:46.214Z,3.65
2023-04-16T03:57:24.111Z,4.40
2023-04-16T03:59:53.889Z,5.22
2023-04-16T04:02:22.475Z,4.65
2023-04-16T04:04:50.849Z,2.33
2023-04-16T04:07:20.559Z,2.63
2023-04-16T04:09:48.550Z,6.97
2023-04-16T04:12:16.897Z,2.35
2023-04-16T04:14:46.578Z,4.28
2023-04-16T04:17:14.471Z,3.15
2023-04-16T04:19:50.674Z,2.80
2023-04-16T04:22:29.458Z,1.88
2023-04-16T04:24:57.472Z,2.85
2023-04-16T04:27:27.827Z,3.65
2023-04-16T04:29:55.885Z,3.63
2023-04-16T04:32:23.889Z,3.33
2023-04-16T04:34:51.786Z,2.30
2023-04-16T04:37:19.658Z,2.65
2023-04-16T04:39:48.923Z,4.80
2023-04-16T04:42:18.130Z,2.53
2023-04-16T04:44:46.102Z,2.30
2023-04-16T04:47:14.267Z,3.03
2023-04-16T04:49:42.184Z,4.28
2023-04-16T04:52:10.140Z,2.38
2023-04-16T04:54:41.470Z,3.53
2023-04-16T04:57:10.761Z,3.28
2023-04-16T04:59:38.672Z,2.33
2023-04-16T05:02:06.863Z,2.78
2023-04-16T05:04:34.780Z,2.40
2023-04-16T05:07:02.775Z,3.35
2023-04-16T05:09:30.785Z,4.00
2023-04-16T05:11:58.718Z,2.88
2023-04-16T05:14:28.076Z,2.25
2023-04-16T05:16:56.485Z,2.08
2023-04-16T05:19:24.482Z,2.55
2023-04-16T05:21:52.355Z,2.70
2023-04-16T05:24:20.904Z,2.67
2023-04-16T05:26:48.765Z,4.07
2023-04-16T05:29:16.632Z,2.65
2023-04-16T05:31:45.856Z,2.28
2023-04-16T05:34:13.715Z,2.00
2023-04-16T05:36:41.566Z,2.95
2023-04-16T05:39:10.656Z,2.25
2023-04-16T05:41:38.689Z,1.77
2023-04-16T05:44:06.773Z,2.10
2023-04-16T05:46:34.926Z,1.77
2023-04-16T05:49:04.272Z,2.78
2023-04-16T05:51:32.348Z,2.58
2023-04-16T05:54:00.303Z,1.85
2023-04-16T05:56:28.244Z,2.15
2023-04-16T05:58:56.092Z,2.58
2023-04-16T06:01:23.996Z,2.30
2023-04-16T06:03:52.027Z,3.22
2023-04-16T06:06:21.314Z,3.45
2023-04-16T06:08:49.177Z,2.55
2023-04-16T06:11:17.054Z,2.80
2023-04-16T06:13:45.915Z,1.83
2023-04-16T06:16:13.948Z,2.65
2023-04-16T06:18:42.320Z,5.35
2023-04-16T06:21:10.281Z,1.98
2023-04-16T06:23:39.524Z,3.88
2023-04-16T06:26:07.450Z,2.97
2023-04-16T06:28:35.414Z,2.85
2023-04-16T06:31:03.578Z,2.00
2023-04-16T06:33:31.484Z,2.45
2023-04-16T06:35:59.357Z,2.15
2023-04-16T06:38:27.239Z,2.70
2023-04-16T06:40:56.553Z,2.67
2023-04-16T06:43:24.474Z,1.45
2023-04-16T06:45:52.337Z,1.48
2023-04-16T06:48:20.233Z,2.75
2023-04-16T06:50:48.237Z,3.78
2023-04-16T06:53:16.310Z,2.72
2023-04-16T06:55:44.180Z,3.42
2023-04-16T06:58:13.405Z,2.08
2023-04-16T07:00:41.383Z,2.72
2023-04-16T07:03:09.559Z,2.42
2023-04-16T07:05:37.550Z,2.03
2023-04-16T07:08:05.497Z,2.00
2023-04-16T07:10:33.364Z,1.95
2023-04-16T07:13:01.581Z,2.13
2023-04-16T07:15:30.860Z,1.73
2023-04-16T07:17:58.805Z,1.80
2023-04-16T07:20:26.776Z,5.10
2023-04-16T07:22:54.899Z,2.05
2023-04-16T07:25:22.951Z,4.55
2023-04-16T07:27:50.877Z,2.10
2023-04-16T07:30:18.821Z,2.70
2023-04-16T07:32:48.115Z,2.95
2023-04-16T07:35:16.036Z,2.25
2023-04-16T07:37:43.935Z,4.18
2023-04-16T07:40:12.583Z,2.40
2023-04-16T07:42:40.614Z,5.03
2023-04-16T07:45:09.466Z,2.30
2023-04-16T07:47:37.506Z,2.15
2023-04-16T07:50:08.299Z,2.97
2023-04-16T07:52:37.262Z,1.80
2023-04-16T07:55:05.717Z,2.92
2023-04-16T07:57:33.661Z,2.08
2023-04-16T08:00:02.059Z,5.78
2023-04-16T08:02:41.179Z,1.95
2023-04-16T08:05:10.813Z,5.95
2023-04-16T08:07:38.727Z,2.58
2023-04-16T08:10:07.493Z,6.05
2023-04-16T08:12:35.790Z,1.85
2023-04-16T08:15:03.791Z,1.92
2023-04-16T08:17:31.787Z,3.88
2023-04-16T08:20:00.457Z,2.47
2023-04-16T08:22:29.971Z,2.08
2023-04-16T08:24:57.924Z,4.28
2023-04-16T08:27:25.951Z,2.50
2023-04-16T08:29:53.879Z,3.50
2023-04-16T08:32:21.858Z,4.18
2023-04-16T08:34:49.793Z,2.75
2023-04-16T08:37:17.684Z,2.38
2023-04-16T08:39:46.909Z,1.88
2023-04-16T08:42:19.905Z,1.55
2023-04-16T08:44:49.495Z,3.25
2023-04-16T08:47:17.828Z,6.05
2023-04-16T08:49:46.045Z,4.90
2023-04-16T08:52:16.592Z,4.35
2023-04-16T08:54:56.400Z,2.88
2023-04-16T08:57:25.397Z,1.95
2023-04-16T08:59:53.330Z,2.95
2023-04-16T09:02:22.167Z,2.20
2023-04-16T09:04:50.217Z,2.33
2023-04-16T09:07:18.133Z,1.95
2023-04-16T09:09:47.380Z,3.33
2023-04-16T09:12:15.290Z,2.00
2023-04-16T09:14:44.168Z,2.30
2023-04-16T09:17:12.102Z,1.83
2023-04-16T09:19:39.972Z,2.85
2023-04-16T09:22:07.901Z,2.42
2023-04-16T09:24:35.937Z,3.40
2023-04-16T09:27:05.234Z,2.75
2023-04-16T09:29:37.016Z,2.40
2023-04-16T09:32:05.469Z,2.40
2023-04-16T09:34:34.309Z,2.35
2023-04-16T09:37:17.595Z,2.05
2023-04-16T09:39:45.908Z,2.75
2023-04-16T09:42:15.393Z,1.95
2023-04-16T09:44:43.339Z,2.38
2023-04-16T09:47:11.231Z,2.80
2023-04-16T09:49:42.964Z,2.15
2023-04-16T09:52:13.745Z,2.05
2023-04-16T09:54:46.899Z,2.53
2023-04-16T09:57:17.042Z,3.80
2023-04-16T09:59:44.960Z,1.98
2023-04-16T10:02:15.407Z,6.00
2023-04-16T10:04:48.901Z,2.65
2023-04-16T10:07:16.991Z,4.88
2023-04-16T10:09:44.890Z,4.53
2023-04-16T10:12:13.554Z,4.57
2023-04-16T10:14:43.191Z,6.45
2023-04-16T10:17:11.123Z,4.03
2023-04-16T10:19:39.300Z,5.18
2023-04-16T10:22:07.278Z,5.07
2023-04-16T10:24:35.677Z,4.05
2023-04-16T10:27:03.625Z,3.85
2023-04-16T10:29:32.082Z,5.82
2023-04-16T10:32:01.684Z,7.55
2023-04-16T10:34:29.879Z,12.88
2023-04-16T10:36:57.764Z,10.02
2023-04-16T10:39:26.329Z,8.32
2023-04-16T10:42:08.368Z,11.93
2023-04-16T10:44:36.566Z,7.75
2023-04-16T10:47:11.032Z,7.82
2023-04-16T10:49:38.942Z,5.03
2023-04-16T10:52:10.771Z,59.72
2023-04-16T10:54:39.098Z,90.45
2023-04-16T10:57:08.212Z,44.60
2023-04-16T10:59:36.787Z,37.92
2023-04-16T11:02:10.325Z,21.05
2023-04-16T11:04:39.105Z,16.77
2023-04-16T11:07:09.061Z,15.82
2023-04-16T11:10:04.915Z,12.75
2023-04-16T11:12:35.304Z,16.90
2023-04-16T11:15:03.758Z,9.82
2023-04-16T11:17:34.187Z,12.77
2023-04-16T11:20:02.098Z,12.77
2023-04-16T11:22:30.030Z,14.27
2023-04-16T11:24:58.101Z,10.35
2023-04-16T11:27:26.515Z,9.77
2023-04-16T11:30:01.233Z,9.02
2023-04-16T11:32:29.329Z,10.57
2023-04-16T11:34:59.852Z,8.73
2023-04-16T11:37:34.031Z,10.30
2023-04-16T11:40:02.479Z,11.07
2023-04-16T11:42:30.394Z,8.68
2023-04-16T11:45:00.457Z,7.47
2023-04-16T11:47:28.638Z,7.63
2023-04-16T11:49:58.031Z,9.38
2023-04-16T11:52:28.178Z,8.40
2023-04-16T11:54:56.124Z,9.43
2023-04-16T11:57:28.070Z,10.18
2023-04-16T12:00:02.166Z,7.15
2023-04-16T12:02:41.315Z,9.13
2023-04-16T12:05:28.925Z,10.80
2023-04-16T12:07:56.990Z,7.60
2023-04-16T12:10:25.081Z,10.60
2023-04-16T12:12:52.993Z,7.60
2023-04-16T12:15:20.940Z,11.60
2023-04-16T12:17:50.458Z,11.60
2023-04-16T12:20:18.528Z,8.70
2023-04-16T12:22:49.640Z,13.35
2023-04-16T12:25:18.289Z,13.20
2023-04-16T12:27:48.001Z,12.85
2023-04-16T12:30:17.258Z,11.93
2023-04-16T12:32:46.829Z,13.07
2023-04-16T12:35:15.049Z,12.75
2023-04-16T12:37:42.996Z,13.52
2023-04-16T12:40:12.817Z,11.38
2023-04-16T12:42:40.683Z,14.85
2023-04-16T12:45:09.205Z,13.75
2023-04-16T12:47:37.271Z,11.43
2023-04-16T12:50:05.828Z,13.10
2023-04-16T12:52:33.837Z,13.00
2023-04-16T12:55:02.755Z,14.70
2023-04-16T12:57:32.042Z,13.48
2023-04-16T13:00:00.033Z,12.07
2023-04-16T13:02:28.172Z,13.68
2023-04-16T13:04:56.198Z,12.88
2023-04-16T13:07:24.237Z,18.63
2023-04-16T13:09:52.182Z,12.65
2023-04-16T13:12:20.177Z,17.08
2023-04-16T13:14:49.550Z,15.88
2023-04-16T13:18:10.581Z,16.08
2023-04-16T13:20:39.154Z,15.73
2023-04-16T13:23:07.724Z,16.35
2023-04-16T13:25:35.637Z,16.10
2023-04-16T13:28:03.559Z,16.65
2023-04-16T13:30:33.460Z,14.65
2023-04-16T13:33:01.635Z,18.20
2023-04-16T13:35:30.437Z,17.33
2023-04-16T13:37:58.428Z,15.93
2023-04-16T13:40:26.379Z,17.85
2023-04-16T13:42:54.334Z,17.90
2023-04-16T13:45:22.481Z,21.00
2023-04-16T13:47:56.502Z,20.30
2023-04-16T13:50:25.751Z,17.38
2023-04-16T13:52:53.683Z,21.52
2023-04-16T13:55:21.643Z,19.27
2023-04-16T13:57:50.153Z,18.48
2023-04-16T14:00:19.610Z,19.67
2023-04-16T14:02:48.792Z,18.90
2023-04-16T14:05:19.366Z,21.10
2023-04-16T14:07:47.415Z,19.80
2023-04-16T14:10:15.494Z,19.35
2023-04-16T14:12:44.111Z,18.80
2023-04-16T14:15:14.645Z,19.17
2023-04-16T14:17:43.759Z,21.98
2023-04-16T14:20:13.121Z,24.20
2023-04-16T14:22:43.876Z,22.67
2023-04-16T14:25:12.083Z,24.63
2023-04-16T14:27:41.162Z,33.35
2023-04-16T14:30:09.818Z,26.95
2023-04-16T14:32:38.043Z,24.42
2023-04-16T14:35:06.968Z,29.40
2023-04-16T14:37:35.871Z,25.98
2023-04-16T14:40:09.149Z,20.27
2023-04-16T14:42:37.697Z,22.42
2023-04-16T14:45:06.859Z,20.17
2023-04-16T14:47:34.907Z,22.95
2023-04-16T14:50:02.984Z,25.13
2023-04-16T14:52:31.924Z,21.27
2023-04-16T14:54:59.832Z,24.15
2023-04-16T14:57:29.039Z,21.02
2023-04-16T14:59:56.977Z,21.08
2023-04-16T15:02:25.023Z,22.10
2023-04-16T15:04:53.028Z,23.65
2023-04-16T15:07:21.202Z,24.23
2023-04-16T15:09:49.115Z,20.48
2023-04-16T15:12:19.174Z,23.90
2023-04-16T15:14:48.484Z,19.33
2023-04-16T15:17:16.515Z,17.35
2023-04-16T15:19:44.441Z,22.60
2023-04-16T15:22:12.582Z,19.20
2023-04-16T15:24:40.472Z,19.08
2023-04-16T15:27:11.602Z,20.85
2023-04-16T15:29:39.842Z,23.92
2023-04-16T15:32:09.186Z,21.88
2023-04-16T15:34:37.134Z,22.80
2023-04-16T15:37:05.095Z,18.45
2023-04-16T15:39:33.031Z,20.48
2023-04-16T15:42:03.522Z,21.83
2023-04-16T15:44:32.622Z,17.15
2023-04-16T15:47:00.835Z,17.80
2023-04-16T15:49:30.093Z,19.67
2023-04-16T15:51:58.017Z,22.42
2023-04-16T15:54:26.001Z,17.77
2023-04-16T15:56:53.897Z,23.33
2023-04-16T15:59:21.781Z,19.73
2023-04-16T16:01:49.813Z,17.55
2023-04-16T16:04:17.989Z,19.98
2023-04-16T16:06:47.251Z,18.25
2023-04-16T16:09:15.501Z,20.08
2023-04-16T16:11:43.437Z,19.15
2023-04-16T16:14:11.607Z,20.58
2023-04-16T16:16:41.053Z,17.73
2023-04-16T16:19:09.326Z,16.02
2023-04-16T16:21:37.684Z,16.83
2023-04-16T16:24:07.666Z,14.15
2023-04-16T16:26:35.590Z,16.95
2023-04-16T16:29:03.473Z,15.20
2023-04-16T16:31:31.504Z,16.80
2023-04-16T16:33:59.778Z,15.73
2023-04-16T16:36:27.951Z,15.13
2023-04-16T16:38:56.924Z,18.20
2023-04-16T16:41:26.370Z,15.43
2023-04-16T16:43:56.169Z,17.33
2023-04-16T16:46:24.111Z,16.13
2023-04-16T16:48:52.040Z,15.25
2023-04-16T16:51:20.251Z,17.67
2023-04-16T16:53:48.413Z,17.35
2023-04-16T16:56:16.959Z,15.95
2023-04-16T16:58:47.067Z,15.57
2023-04-16T17:01:15.066Z,18.15
2023-04-16T17:03:43.165Z,15.93
2023-04-16T17:06:11.160Z,14.82
2023-04-16T17:08:40.003Z,17.85
2023-04-16T17:11:08.321Z,19.50
2023-04-16T17:13:37.221Z,17.65
2023-04-16T17:16:06.884Z,20.00
2023-04-16T17:18:35.471Z,17.02
2023-04-16T17:21:03.448Z,18.40
2023-04-16T17:23:31.333Z,16.60
2023-04-16T17:26:00.213Z,18.20
2023-04-16T17:28:28.107Z,15.93
2023-04-16T17:30:57.084Z,19.13
2023-04-16T17:33:26.422Z,15.90
2023-04-16T17:35:54.319Z,16.60
2023-04-16T17:38:22.266Z,16.80
2023-04-16T17:40:50.268Z,16.27
2023-04-16T17:43:18.202Z,19.75
2023-04-16T17:45:46.215Z,15.57
2023-04-16T17:48:14.158Z,14.90
2023-04-16T17:50:43.381Z,19.52
2023-04-16T17:53:11.561Z,18.52
2023-04-16T17:55:39.798Z,18.23
2023-04-16T17:58:07.765Z,15.35
2023-04-16T18:00:35.832Z,16.73
2023-04-16T18:03:03.890Z,16.13
2023-04-16T18:05:31.889Z,16.80
2023-04-16T18:08:01.179Z,19.35
2023-04-16T18:10:31.503Z,14.68
2023-04-16T18:12:59.515Z,15.23
2023-04-16T18:15:27.603Z,16.67
2023-04-16T18:17:55.650Z,18.75
2023-04-16T18:20:23.725Z,15.18
2023-04-16T18:22:51.592Z,15.23
2023-04-16T18:25:29.978Z,15.85
2023-04-16T18:28:02.282Z,15.07
2023-04-16T18:30:30.420Z,13.38
2023-04-16T18:35:29.306Z,15.55
2023-04-16T18:37:57.218Z,14.48
2023-04-16T18:40:26.451Z,14.07
2023-04-16T18:42:54.423Z,15.77
2023-04-16T18:45:22.344Z,12.32
2023-04-16T18:47:50.838Z,12.93
2023-04-16T18:50:18.883Z,12.70
2023-04-16T18:52:46.963Z,15.40
2023-04-16T18:55:14.928Z,15.35
2023-04-16T18:57:44.165Z,15.95
2023-04-16T19:00:13.675Z,12.55
2023-04-16T19:02:41.643Z,12.05
2023-04-16T19:05:10.072Z,14.55
2023-04-16T19:07:38.576Z,11.90
2023-04-16T19:10:07.679Z,11.25
2023-04-16T19:12:35.749Z,15.60
2023-04-16T19:15:05.469Z,12.15
2023-04-16T19:17:33.442Z,11.70
2023-04-16T19:20:01.448Z,11.15
2023-04-16T19:22:29.575Z,10.65
2023-04-16T19:24:57.444Z,11.95
2023-04-16T19:27:25.323Z,18.45
2023-04-16T19:29:53.333Z,12.23
2023-04-16T19:32:22.597Z,13.52
2023-04-16T19:34:50.549Z,13.57
2023-04-16T19:37:18.457Z,14.07
2023-04-16T19:39:46.431Z,14.27
2023-04-16T19:42:14.327Z,12.60
2023-04-16T19:44:42.254Z,14.45
2023-04-16T19:47:10.638Z,13.43
2023-04-16T19:49:43.467Z,13.55
2023-04-16T19:52:11.496Z,19.13
2023-04-16T19:54:40.262Z,16.58
2023-04-16T19:57:08.162Z,18.33
2023-04-16T19:59:36.134Z,11.77
2023-04-16T20:02:04.059Z,18.02
2023-04-16T20:04:32.055Z,18.33
2023-04-16T20:07:01.326Z,17.80
2023-04-16T20:09:29.231Z,20.52
2023-04-16T20:11:57.978Z,16.25
2023-04-16T20:14:25.948Z,13.40
2023-04-16T20:16:53.828Z,11.07
2023-04-16T20:19:22.060Z,13.13
2023-04-16T20:21:49.928Z,11.98
2023-04-16T20:24:19.172Z,14.50
2023-04-16T20:26:47.059Z,11.63
2023-04-16T20:29:15.189Z,13.45
2023-04-16T20:31:44.366Z,15.23
2023-04-16T20:34:12.337Z,14.13
2023-04-16T20:36:40.375Z,14.65
2023-04-16T20:39:09.664Z,15.52
2023-04-16T20:41:44.348Z,11.07
2023-04-16T20:44:18.796Z,18.10
2023-04-16T20:46:49.604Z,15.82
2023-04-16T20:49:18.486Z,22.70
2023-04-16T20:51:46.363Z,25.13
2023-04-16T20:54:14.281Z,26.77
2023-04-16T20:56:44.730Z,25.98
2023-04-16T20:59:13.286Z,20.65
2023-04-16T21:01:41.304Z,21.98
2023-04-16T21:04:09.368Z,20.45
2023-04-16T21:06:38.423Z,18.52
2023-04-16T21:09:06.526Z,19.80
2023-04-16T21:11:35.472Z,15.73
2023-04-16T21:14:04.974Z,14.88
2023-04-16T21:16:33.135Z,18.33
2023-04-16T21:19:01.168Z,19.60
2023-04-16T21:21:29.222Z,18.17
2023-04-16T21:23:57.151Z,18.70
2023-04-16T21:26:25.017Z,18.38
2023-04-16T21:28:54.591Z,15.45
2023-04-16T21:31:24.474Z,13.88
2023-04-16T21:33:52.370Z,15.85
2023-04-16T21:36:20.464Z,19.08
2023-04-16T21:38:48.351Z,14.45
2023-04-16T21:41:16.424Z,15.43
2023-04-16T21:43:44.387Z,12.77
2023-04-16T21:46:12.289Z,13.65
2023-04-16T21:48:41.586Z,14.75
2023-04-16T21:51:10.092Z,16.13
2023-04-16T21:53:39.033Z,16.88
2023-04-16T21:56:08.023Z,13.43
2023-04-16T21:58:35.914Z,15.52
2023-04-16T22:01:03.895Z,14.02
2023-04-16T22:03:33.443Z,19.55
2023-04-16T22:06:02.953Z,14.23
2023-04-16T22:08:31.029Z,13.27
2023-04-16T22:10:59.721Z,14.63
2023-04-16T22:13:27.678Z,16.63
2023-04-16T22:15:55.934Z,12.10
2023-04-16T22:18:25.368Z,12.43
2023-04-16T22:20:54.959Z,14.15
2023-04-16T22:23:25.755Z,14.27
2023-04-16T22:25:55.280Z,12.45
2023-04-16T22:28:23.204Z,15.52
2023-04-16T22:30:51.214Z,11.13
2023-04-16T22:33:19.126Z,12.90
2023-04-16T22:35:47.025Z,13.88
2023-04-16T22:38:14.998Z,12.48
2023-04-16T22:40:44.282Z,13.38
2023-04-16T22:43:12.149Z,13.05
2023-04-16T22:45:41.086Z,11.45
2023-04-16T22:48:09.148Z,11.60
2023-04-16T22:50:37.061Z,12.02
2023-04-16T22:53:04.968Z,12.20
2023-04-16T22:55:32.829Z,10.40
2023-04-16T22:58:02.060Z,13.63
2023-04-16T23:00:29.917Z,11.27
2023-04-16T23:02:57.902Z,10.73
2023-04-16T23:05:25.924Z,12.57
2023-04-16T23:07:53.806Z,10.65
2023-04-16T23:10:21.685Z,12.20
2023-04-16T23:12:49.559Z,9.68
2023-04-16T23:15:18.946Z,10.80
2023-04-16T23:17:46.993Z,10.80
2023-04-16T23:20:14.969Z,10.85
2023-04-16T23:22:42.827Z,10.30
2023-04-16T23:25:11.179Z,9.27
2023-04-16T23:27:39.102Z,11.02
2023-04-16T23:30:08.285Z,9.75
2023-04-16T23:32:37.560Z,8.43
2023-04-16T23:35:06.165Z,8.48
2023-04-16T23:37:34.011Z,7.88
2023-04-16T23:40:01.913Z,9.18
2023-04-16T23:42:29.788Z,9.35
2023-04-16T23:44:57.758Z,9.70
2023-04-16T23:47:25.654Z,9.35
2023-04-16T23:49:55.147Z,10.52
2023-04-16T23:52:23.034Z,9.48
2023-04-16T23:54:50.961Z,9.25
2023-04-16T23:57:18.955Z,8.68
2023-04-16T23:59:46.829Z,8.57
